sensor_id;sensor_type;location;lat;lon;timestamp;temperature;humidity
71942;DHT22;59997;53.300;-6.260;2022-12-18T00:01:12;0.29;92.09
71942;DHT22;59997;53.300;-6.260;2022-12-18T00:03:38;0.32;92.13
71942;DHT22;59997;53.300;-6.260;2022-12-18T00:06:04;0.29;92.17
71942;DHT22;59997;53.300;-6.260;2022-12-18T00:08:29;0.39;92.16
71942;DHT22;59997;53.300;-6.260;2022-12-18T00:10:55;0.45;92.22
71942;DHT22;59997;53.300;-6.260;2022-12-18T00:13:20;0.59;92.20
71942;DHT22;59997;53.300;-6.260;2022-12-18T00:15:46;0.70;92.13
71942;DHT22;59997;53.300;-6.260;2022-12-18T00:18:11;0.96;92.12
71942;DHT22;59997;53.300;-6.260;2022-12-18T00:20:38;1.39;92.10
71942;DHT22;59997;53.300;-6.260;2022-12-18T00:23:05;1.71;92.14
71942;DHT22;59997;53.300;-6.260;2022-12-18T00:25:33;1.99;92.17
71942;DHT22;59997;53.300;-6.260;2022-12-18T00:27:59;2.02;92.13
71942;DHT22;59997;53.300;-6.260;2022-12-18T00:30:25;2.01;92.18
71942;DHT22;59997;53.300;-6.260;2022-12-18T00:32:50;1.89;92.14
71942;DHT22;59997;53.300;-6.260;2022-12-18T00:35:16;1.74;92.15
71942;DHT22;59997;53.300;-6.260;2022-12-18T00:37:41;1.86;92.23
71942;DHT22;59997;53.300;-6.260;2022-12-18T00:40:07;1.86;92.28
71942;DHT22;59997;53.300;-6.260;2022-12-18T00:42:33;1.98;92.25
71942;DHT22;59997;53.300;-6.260;2022-12-18T00:45:17;2.03;92.23
71942;DHT22;59997;53.300;-6.260;2022-12-18T00:47:42;2.12;92.28
71942;DHT22;59997;53.300;-6.260;2022-12-18T00:50:08;2.10;92.31
71942;DHT22;59997;53.300;-6.260;2022-12-18T00:52:34;2.06;92.25
71942;DHT22;59997;53.300;-6.260;2022-12-18T00:54:59;2.12;92.29
71942;DHT22;59997;53.300;-6.260;2022-12-18T00:57:25;2.13;92.29
71942;DHT22;59997;53.300;-6.260;2022-12-18T00:59:50;2.59;92.38
71942;DHT22;59997;53.300;-6.260;2022-12-18T01:02:15;2.71;92.32
71942;DHT22;59997;53.300;-6.260;2022-12-18T01:04:41;2.78;92.35
71942;DHT22;59997;53.300;-6.260;2022-12-18T01:07:06;2.71;92.29
71942;DHT22;59997;53.300;-6.260;2022-12-18T01:09:32;2.65;92.29
71942;DHT22;59997;53.300;-6.260;2022-12-18T01:11:57;2.68;92.30
71942;DHT22;59997;53.300;-6.260;2022-12-18T01:14:23;2.76;92.27
71942;DHT22;59997;53.300;-6.260;2022-12-18T01:16:48;2.92;92.23
71942;DHT22;59997;53.300;-6.260;2022-12-18T01:19:13;3.07;92.27
71942;DHT22;59997;53.300;-6.260;2022-12-18T01:21:39;3.00;92.17
71942;DHT22;59997;53.300;-6.260;2022-12-18T01:24:05;2.93;92.26
71942;DHT22;59997;53.300;-6.260;2022-12-18T01:26:30;3.07;92.33
71942;DHT22;59997;53.300;-6.260;2022-12-18T01:28:56;2.96;92.20
71942;DHT22;59997;53.300;-6.260;2022-12-18T01:31:29;2.97;92.17
71942;DHT22;59997;53.300;-6.260;2022-12-18T01:33:55;3.04;92.13
71942;DHT22;59997;53.300;-6.260;2022-12-18T01:36:35;3.21;92.14
71942;DHT22;59997;53.300;-6.260;2022-12-18T01:39:04;3.18;92.06
71942;DHT22;59997;53.300;-6.260;2022-12-18T01:41:30;3.06;92.03
71942;DHT22;59997;53.300;-6.260;2022-12-18T01:49:54;3.37;91.79
71942;DHT22;59997;53.300;-6.260;2022-12-18T01:52:21;3.23;91.83
71942;DHT22;59997;53.300;-6.260;2022-12-18T01:54:49;3.18;91.86
71942;DHT22;59997;53.300;-6.260;2022-12-18T01:57:15;3.11;91.77
71942;DHT22;59997;53.300;-6.260;2022-12-18T01:59:42;3.13;91.94
71942;DHT22;59997;53.300;-6.260;2022-12-18T02:02:11;3.17;91.99
71942;DHT22;59997;53.300;-6.260;2022-12-18T02:04:36;3.21;91.92
71942;DHT22;59997;53.300;-6.260;2022-12-18T02:10:13;3.37;91.69
71942;DHT22;59997;53.300;-6.260;2022-12-18T02:12:45;3.39;91.42
71942;DHT22;59997;53.300;-6.260;2022-12-18T02:18:00;3.20;91.26
71942;DHT22;59997;53.300;-6.260;2022-12-18T02:20:55;3.24;90.98
71942;DHT22;59997;53.300;-6.260;2022-12-18T02:24:54;3.56;90.39
71942;DHT22;59997;53.300;-6.260;2022-12-18T02:26:49;3.48;90.34
71942;DHT22;59997;53.300;-6.260;2022-12-18T02:29:19;3.69;89.57
71942;DHT22;59997;53.300;-6.260;2022-12-18T02:31:51;4.14;87.72
71942;DHT22;59997;53.300;-6.260;2022-12-18T02:34:18;4.39;86.44
71942;DHT22;59997;53.300;-6.260;2022-12-18T02:36:46;4.38;86.83
71942;DHT22;59997;53.300;-6.260;2022-12-18T02:39:13;4.42;86.67
71942;DHT22;59997;53.300;-6.260;2022-12-18T02:41:40;4.60;86.47
71942;DHT22;59997;53.300;-6.260;2022-12-18T02:44:11;4.79;85.87
71942;DHT22;59997;53.300;-6.260;2022-12-18T02:46:43;4.72;86.17
71942;DHT22;59997;53.300;-6.260;2022-12-18T02:57:42;4.60;88.02
71942;DHT22;59997;53.300;-6.260;2022-12-18T03:00:21;4.79;87.77
71942;DHT22;59997;53.300;-6.260;2022-12-18T03:08:25;4.66;88.68
71942;DHT22;59997;53.300;-6.260;2022-12-18T03:10:58;4.76;88.78
71942;DHT22;59997;53.300;-6.260;2022-12-18T03:15:59;5.07;88.45
71942;DHT22;59997;53.300;-6.260;2022-12-18T03:20:58;5.24;87.42
71942;DHT22;59997;53.300;-6.260;2022-12-18T03:23:28;5.25;87.03
71942;DHT22;59997;53.300;-6.260;2022-12-18T03:25:57;5.24;86.56
71942;DHT22;59997;53.300;-6.260;2022-12-18T03:28:24;5.25;86.87
71942;DHT22;59997;53.300;-6.260;2022-12-18T03:30:52;5.21;86.61
71942;DHT22;59997;53.300;-6.260;2022-12-18T03:33:42;5.25;86.16
71942;DHT22;59997;53.300;-6.260;2022-12-18T03:36:10;5.19;86.15
71942;DHT22;59997;53.300;-6.260;2022-12-18T03:38:36;5.16;86.14
71942;DHT22;59997;53.300;-6.260;2022-12-18T03:41:11;5.18;86.22
71942;DHT22;59997;53.300;-6.260;2022-12-18T03:44:11;5.22;85.90
71942;DHT22;59997;53.300;-6.260;2022-12-18T03:46:58;5.14;85.93
71942;DHT22;59997;53.300;-6.260;2022-12-18T03:52:09;5.28;85.37
71942;DHT22;59997;53.300;-6.260;2022-12-18T03:54:36;5.19;85.37
71942;DHT22;59997;53.300;-6.260;2022-12-18T03:57:13;5.24;85.24
71942;DHT22;59997;53.300;-6.260;2022-12-18T03:59:40;5.33;85.15
71942;DHT22;59997;53.300;-6.260;2022-12-18T04:02:06;5.39;84.77
71942;DHT22;59997;53.300;-6.260;2022-12-18T04:04:34;5.26;85.23
71942;DHT22;59997;53.300;-6.260;2022-12-18T04:07:01;5.26;85.39
71942;DHT22;59997;53.300;-6.260;2022-12-18T04:09:28;5.35;85.52
71942;DHT22;59997;53.300;-6.260;2022-12-18T04:11:53;5.42;85.38
71942;DHT22;59997;53.300;-6.260;2022-12-18T04:14:18;5.25;85.93
71942;DHT22;59997;53.300;-6.260;2022-12-18T04:16:44;5.28;85.99
71942;DHT22;59997;53.300;-6.260;2022-12-18T04:19:09;5.47;85.30
71942;DHT22;59997;53.300;-6.260;2022-12-18T04:21:35;5.54;85.27
71942;DHT22;59997;53.300;-6.260;2022-12-18T04:24:00;5.49;85.48
71942;DHT22;59997;53.300;-6.260;2022-12-18T04:26:26;5.36;85.90
71942;DHT22;59997;53.300;-6.260;2022-12-18T04:28:51;5.42;85.92
71942;DHT22;59997;53.300;-6.260;2022-12-18T04:31:17;5.46;86.06
71942;DHT22;59997;53.300;-6.260;2022-12-18T04:33:42;5.46;85.99
71942;DHT22;59997;53.300;-6.260;2022-12-18T04:36:08;5.46;86.22
71942;DHT22;59997;53.300;-6.260;2022-12-18T04:38:33;5.50;86.26
71942;DHT22;59997;53.300;-6.260;2022-12-18T04:40:58;5.56;86.15
71942;DHT22;59997;53.300;-6.260;2022-12-18T04:43:24;5.53;86.22
71942;DHT22;59997;53.300;-6.260;2022-12-18T04:45:49;5.63;86.14
71942;DHT22;59997;53.300;-6.260;2022-12-18T04:48:15;5.61;86.29
71942;DHT22;59997;53.300;-6.260;2022-12-18T04:50:41;5.63;86.05
71942;DHT22;59997;53.300;-6.260;2022-12-18T04:53:06;5.70;85.95
71942;DHT22;59997;53.300;-6.260;2022-12-18T04:55:32;5.71;85.92
71942;DHT22;59997;53.300;-6.260;2022-12-18T04:57:57;5.67;86.21
71942;DHT22;59997;53.300;-6.260;2022-12-18T05:00:23;5.75;85.93
71942;DHT22;59997;53.300;-6.260;2022-12-18T05:02:48;5.75;85.92
71942;DHT22;59997;53.300;-6.260;2022-12-18T05:05:14;5.77;86.00
71942;DHT22;59997;53.300;-6.260;2022-12-18T05:07:39;5.78;86.11
71942;DHT22;59997;53.300;-6.260;2022-12-18T05:10:05;5.83;86.05
71942;DHT22;59997;53.300;-6.260;2022-12-18T05:12:31;5.78;86.24
71942;DHT22;59997;53.300;-6.260;2022-12-18T05:14:56;5.78;86.43
71942;DHT22;59997;53.300;-6.260;2022-12-18T05:17:22;5.75;86.65
71942;DHT22;59997;53.300;-6.260;2022-12-18T05:19:47;5.73;86.99
71942;DHT22;59997;53.300;-6.260;2022-12-18T05:22:12;5.57;87.44
71942;DHT22;59997;53.300;-6.260;2022-12-18T05:24:38;5.52;87.73
71942;DHT22;59997;53.300;-6.260;2022-12-18T05:27:03;5.49;87.88
71942;DHT22;59997;53.300;-6.260;2022-12-18T05:29:29;5.47;88.08
71942;DHT22;59997;53.300;-6.260;2022-12-18T05:31:54;5.44;88.21
71942;DHT22;59997;53.300;-6.260;2022-12-18T05:34:20;5.38;88.42
71942;DHT22;59997;53.300;-6.260;2022-12-18T05:36:46;5.33;88.47
71942;DHT22;59997;53.300;-6.260;2022-12-18T05:39:11;5.29;88.66
71942;DHT22;59997;53.300;-6.260;2022-12-18T05:41:37;5.31;88.63
71942;DHT22;59997;53.300;-6.260;2022-12-18T05:44:02;5.31;88.63
71942;DHT22;59997;53.300;-6.260;2022-12-18T05:46:28;5.28;88.74
71942;DHT22;59997;53.300;-6.260;2022-12-18T05:48:54;5.21;88.84
71942;DHT22;59997;53.300;-6.260;2022-12-18T05:51:21;5.21;88.85
71942;DHT22;59997;53.300;-6.260;2022-12-18T05:53:47;5.18;88.88
71942;DHT22;59997;53.300;-6.260;2022-12-18T05:56:18;5.18;88.79
71942;DHT22;59997;53.300;-6.260;2022-12-18T05:58:44;5.15;88.86
71942;DHT22;59997;53.300;-6.260;2022-12-18T06:01:24;5.08;89.09
71942;DHT22;59997;53.300;-6.260;2022-12-18T06:03:50;5.04;89.20
71942;DHT22;59997;53.300;-6.260;2022-12-18T06:06:24;5.11;89.12
71942;DHT22;59997;53.300;-6.260;2022-12-18T06:08:50;5.09;89.14
71942;DHT22;59997;53.300;-6.260;2022-12-18T06:11:18;5.05;89.21
71942;DHT22;59997;53.300;-6.260;2022-12-18T06:13:45;5.11;89.15
71942;DHT22;59997;53.300;-6.260;2022-12-18T06:16:10;5.15;89.07
71942;DHT22;59997;53.300;-6.260;2022-12-18T06:18:36;5.07;89.09
71942;DHT22;59997;53.300;-6.260;2022-12-18T06:21:01;5.08;89.18
71942;DHT22;59997;53.300;-6.260;2022-12-18T06:23:27;5.08;89.19
71942;DHT22;59997;53.300;-6.260;2022-12-18T06:25:53;5.04;89.21
71942;DHT22;59997;53.300;-6.260;2022-12-18T06:28:19;5.05;89.25
71942;DHT22;59997;53.300;-6.260;2022-12-18T06:30:48;5.02;89.17
71942;DHT22;59997;53.300;-6.260;2022-12-18T06:33:14;5.02;88.97
71942;DHT22;59997;53.300;-6.260;2022-12-18T06:35:40;5.02;88.82
71942;DHT22;59997;53.300;-6.260;2022-12-18T06:38:06;4.98;88.48
71942;DHT22;59997;53.300;-6.260;2022-12-18T06:40:31;4.95;88.49
71942;DHT22;59997;53.300;-6.260;2022-12-18T06:42:57;4.84;88.65
71942;DHT22;59997;53.300;-6.260;2022-12-18T06:45:22;4.81;88.44
71942;DHT22;59997;53.300;-6.260;2022-12-18T06:47:48;4.74;88.62
71942;DHT22;59997;53.300;-6.260;2022-12-18T06:50:13;4.67;88.43
71942;DHT22;59997;53.300;-6.260;2022-12-18T06:52:39;4.66;88.51
71942;DHT22;59997;53.300;-6.260;2022-12-18T06:55:06;4.62;88.50
71942;DHT22;59997;53.300;-6.260;2022-12-18T06:57:32;4.55;88.49
71942;DHT22;59997;53.300;-6.260;2022-12-18T06:59:57;4.50;88.28
71942;DHT22;59997;53.300;-6.260;2022-12-18T07:02:22;4.44;88.25
71942;DHT22;59997;53.300;-6.260;2022-12-18T07:04:48;4.35;88.16
71942;DHT22;59997;53.300;-6.260;2022-12-18T07:07:14;4.24;88.13
71942;DHT22;59997;53.300;-6.260;2022-12-18T07:09:40;4.25;88.12
71942;DHT22;59997;53.300;-6.260;2022-12-18T07:12:05;4.27;87.96
71942;DHT22;59997;53.300;-6.260;2022-12-18T07:14:31;4.27;87.85
71942;DHT22;59997;53.300;-6.260;2022-12-18T07:16:57;4.28;87.44
71942;DHT22;59997;53.300;-6.260;2022-12-18T07:19:22;4.28;87.15
71942;DHT22;59997;53.300;-6.260;2022-12-18T07:21:49;4.27;87.36
71942;DHT22;59997;53.300;-6.260;2022-12-18T07:24:15;4.28;87.12
71942;DHT22;59997;53.300;-6.260;2022-12-18T07:26:40;4.30;86.55
71942;DHT22;59997;53.300;-6.260;2022-12-18T07:29:06;4.30;86.42
71942;DHT22;59997;53.300;-6.260;2022-12-18T07:31:31;4.31;86.52
71942;DHT22;59997;53.300;-6.260;2022-12-18T07:33:57;4.37;86.48
71942;DHT22;59997;53.300;-6.260;2022-12-18T07:36:22;4.39;86.44
71942;DHT22;59997;53.300;-6.260;2022-12-18T07:38:49;4.44;86.72
71942;DHT22;59997;53.300;-6.260;2022-12-18T07:41:14;4.42;86.82
71942;DHT22;59997;53.300;-6.260;2022-12-18T07:43:41;4.46;86.93
71942;DHT22;59997;53.300;-6.260;2022-12-18T07:46:08;4.52;86.90
71942;DHT22;59997;53.300;-6.260;2022-12-18T07:48:33;4.52;87.04
71942;DHT22;59997;53.300;-6.260;2022-12-18T07:51:04;4.62;86.74
71942;DHT22;59997;53.300;-6.260;2022-12-18T07:53:31;4.63;86.86
71942;DHT22;59997;53.300;-6.260;2022-12-18T07:55:58;4.62;86.89
71942;DHT22;59997;53.300;-6.260;2022-12-18T07:58:24;4.66;87.05
71942;DHT22;59997;53.300;-6.260;2022-12-18T08:00:49;4.63;87.12
71942;DHT22;59997;53.300;-6.260;2022-12-18T08:03:15;4.62;87.39
71942;DHT22;59997;53.300;-6.260;2022-12-18T08:05:40;4.62;87.45
71942;DHT22;59997;53.300;-6.260;2022-12-18T08:08:06;4.65;87.51
71942;DHT22;59997;53.300;-6.260;2022-12-18T08:10:31;4.62;87.62
71942;DHT22;59997;53.300;-6.260;2022-12-18T08:12:57;4.63;87.69
71942;DHT22;59997;53.300;-6.260;2022-12-18T08:15:22;4.60;87.94
71942;DHT22;59997;53.300;-6.260;2022-12-18T08:17:48;4.63;88.01
71942;DHT22;59997;53.300;-6.260;2022-12-18T08:20:13;4.65;88.26
71942;DHT22;59997;53.300;-6.260;2022-12-18T08:22:44;4.59;88.42
71942;DHT22;59997;53.300;-6.260;2022-12-18T08:25:10;4.56;88.45
71942;DHT22;59997;53.300;-6.260;2022-12-18T08:27:36;4.57;88.43
71942;DHT22;59997;53.300;-6.260;2022-12-18T08:30:02;4.57;88.50
71942;DHT22;59997;53.300;-6.260;2022-12-18T08:32:28;4.56;88.72
71942;DHT22;59997;53.300;-6.260;2022-12-18T08:34:54;4.53;88.89
71942;DHT22;59997;53.300;-6.260;2022-12-18T08:37:19;4.55;88.99
71942;DHT22;59997;53.300;-6.260;2022-12-18T08:39:45;4.55;89.20
71942;DHT22;59997;53.300;-6.260;2022-12-18T08:42:10;4.57;89.30
71942;DHT22;59997;53.300;-6.260;2022-12-18T08:44:54;4.57;89.37
71942;DHT22;59997;53.300;-6.260;2022-12-18T08:47:20;4.63;89.37
71942;DHT22;59997;53.300;-6.260;2022-12-18T08:49:45;4.72;89.28
71942;DHT22;59997;53.300;-6.260;2022-12-18T08:52:11;4.74;89.32
71942;DHT22;59997;53.300;-6.260;2022-12-18T08:54:36;4.79;89.39
71942;DHT22;59997;53.300;-6.260;2022-12-18T08:57:02;4.85;89.38
71942;DHT22;59997;53.300;-6.260;2022-12-18T08:59:27;4.85;89.34
71942;DHT22;59997;53.300;-6.260;2022-12-18T09:01:53;4.84;89.43
71942;DHT22;59997;53.300;-6.260;2022-12-18T09:04:18;4.84;89.46
71942;DHT22;59997;53.300;-6.260;2022-12-18T09:06:44;4.90;89.54
71942;DHT22;59997;53.300;-6.260;2022-12-18T09:09:10;4.92;89.61
71942;DHT22;59997;53.300;-6.260;2022-12-18T09:11:35;4.95;89.66
71942;DHT22;59997;53.300;-6.260;2022-12-18T09:14:01;4.97;89.74
71942;DHT22;59997;53.300;-6.260;2022-12-18T09:16:27;5.01;89.80
71942;DHT22;59997;53.300;-6.260;2022-12-18T09:18:56;5.04;89.90
71942;DHT22;59997;53.300;-6.260;2022-12-18T09:21:26;5.08;89.99
71942;DHT22;59997;53.300;-6.260;2022-12-18T09:23:54;5.12;90.02
71942;DHT22;59997;53.300;-6.260;2022-12-18T09:26:21;5.16;89.97
71942;DHT22;59997;53.300;-6.260;2022-12-18T09:28:46;5.16;89.95
71942;DHT22;59997;53.300;-6.260;2022-12-18T09:31:13;5.16;89.95
71942;DHT22;59997;53.300;-6.260;2022-12-18T09:33:39;5.21;89.94
71942;DHT22;59997;53.300;-6.260;2022-12-18T09:36:09;5.22;89.92
71942;DHT22;59997;53.300;-6.260;2022-12-18T09:38:35;5.31;89.75
71942;DHT22;59997;53.300;-6.260;2022-12-18T09:41:27;5.32;89.65
71942;DHT22;59997;53.300;-6.260;2022-12-18T09:44:10;5.39;89.48
71942;DHT22;59997;53.300;-6.260;2022-12-18T09:46:42;5.42;89.40
71942;DHT22;59997;53.300;-6.260;2022-12-18T09:49:13;5.40;89.43
71942;DHT22;59997;53.300;-6.260;2022-12-18T09:51:44;5.43;89.47
71942;DHT22;59997;53.300;-6.260;2022-12-18T09:54:21;5.42;89.52
71942;DHT22;59997;53.300;-6.260;2022-12-18T09:56:47;5.43;89.47
71942;DHT22;59997;53.300;-6.260;2022-12-18T10:01:56;5.47;89.44
71942;DHT22;59997;53.300;-6.260;2022-12-18T10:04:21;5.50;89.39
71942;DHT22;59997;53.300;-6.260;2022-12-18T10:06:55;5.49;89.39
71942;DHT22;59997;53.300;-6.260;2022-12-18T10:09:51;5.52;89.42
71942;DHT22;59997;53.300;-6.260;2022-12-18T10:17:40;5.56;89.64
71942;DHT22;59997;53.300;-6.260;2022-12-18T10:20:24;5.60;89.58
71942;DHT22;59997;53.300;-6.260;2022-12-18T10:26:05;5.67;89.73
71942;DHT22;59997;53.300;-6.260;2022-12-18T10:28:33;5.67;89.71
71942;DHT22;59997;53.300;-6.260;2022-12-18T10:31:05;5.75;89.70
71942;DHT22;59997;53.300;-6.260;2022-12-18T10:33:32;5.78;89.70
71942;DHT22;59997;53.300;-6.260;2022-12-18T10:35:58;5.84;89.71
71942;DHT22;59997;53.300;-6.260;2022-12-18T10:38:28;5.85;89.68
71942;DHT22;59997;53.300;-6.260;2022-12-18T10:40:55;5.93;89.68
71942;DHT22;59997;53.300;-6.260;2022-12-18T10:43:29;5.94;89.72
71942;DHT22;59997;53.300;-6.260;2022-12-18T10:48:37;6.04;89.70
71942;DHT22;59997;53.300;-6.260;2022-12-18T10:51:06;6.15;89.73
71942;DHT22;59997;53.300;-6.260;2022-12-18T10:53:36;6.19;89.78
71942;DHT22;59997;53.300;-6.260;2022-12-18T10:56:03;6.20;89.79
71942;DHT22;59997;53.300;-6.260;2022-12-18T10:58:37;6.22;89.83
71942;DHT22;59997;53.300;-6.260;2022-12-18T11:01:13;6.20;89.95
71942;DHT22;59997;53.300;-6.260;2022-12-18T11:06:07;6.22;90.03
71942;DHT22;59997;53.300;-6.260;2022-12-18T11:08:33;6.28;90.03
71942;DHT22;59997;53.300;-6.260;2022-12-18T11:10:59;6.32;90.08
71942;DHT22;59997;53.300;-6.260;2022-12-18T11:13:28;6.39;90.06
71942;DHT22;59997;53.300;-6.260;2022-12-18T11:15:54;6.40;90.16
71942;DHT22;59997;53.300;-6.260;2022-12-18T11:18:26;6.47;90.12
71942;DHT22;59997;53.300;-6.260;2022-12-18T11:20:55;6.51;90.20
71942;DHT22;59997;53.300;-6.260;2022-12-18T11:23:23;6.64;90.12
71942;DHT22;59997;53.300;-6.260;2022-12-18T11:26:07;6.64;90.08
71942;DHT22;59997;53.300;-6.260;2022-12-18T11:28:37;6.70;90.11
71942;DHT22;59997;53.300;-6.260;2022-12-18T11:31:25;6.82;90.09
71942;DHT22;59997;53.300;-6.260;2022-12-18T11:36:34;7.00;89.62
71942;DHT22;59997;53.300;-6.260;2022-12-18T11:39:12;7.12;89.46
71942;DHT22;59997;53.300;-6.260;2022-12-18T11:41:47;7.13;89.25
71942;DHT22;59997;53.300;-6.260;2022-12-18T11:44:43;7.20;89.08
71942;DHT22;59997;53.300;-6.260;2022-12-18T11:47:31;7.22;88.93
71942;DHT22;59997;53.300;-6.260;2022-12-18T11:50:01;7.20;88.81
71942;DHT22;59997;53.300;-6.260;2022-12-18T11:52:38;7.20;88.85
71942;DHT22;59997;53.300;-6.260;2022-12-18T11:55:13;7.22;88.80
71942;DHT22;59997;53.300;-6.260;2022-12-18T12:00:19;7.28;88.86
71942;DHT22;59997;53.300;-6.260;2022-12-18T12:03:11;7.30;88.83
71942;DHT22;59997;53.300;-6.260;2022-12-18T12:06:12;7.31;88.93
71942;DHT22;59997;53.300;-6.260;2022-12-18T12:09:02;7.37;88.90
71942;DHT22;59997;53.300;-6.260;2022-12-18T12:15:06;7.50;88.87
71942;DHT22;59997;53.300;-6.260;2022-12-18T12:17:44;7.52;88.83
71942;DHT22;59997;53.300;-6.260;2022-12-18T12:20:20;7.55;88.78
71942;DHT22;59997;53.300;-6.260;2022-12-18T12:25:25;7.72;88.68
71942;DHT22;59997;53.300;-6.260;2022-12-18T12:30:39;7.99;88.46
71942;DHT22;59997;53.300;-6.260;2022-12-18T12:38:41;8.16;88.17
71942;DHT22;59997;53.300;-6.260;2022-12-18T12:41:13;8.28;87.98
71942;DHT22;59997;53.300;-6.260;2022-12-18T12:44:01;8.42;87.82
71942;DHT22;59997;53.300;-6.260;2022-12-18T12:46:30;8.49;87.56
71942;DHT22;59997;53.300;-6.260;2022-12-18T12:49:18;8.56;87.31
71942;DHT22;59997;53.300;-6.260;2022-12-18T12:52:10;8.58;87.41
71942;DHT22;59997;53.300;-6.260;2022-12-18T12:54:38;8.61;87.39
71942;DHT22;59997;53.300;-6.260;2022-12-18T13:02:33;8.68;87.43
71942;DHT22;59997;53.300;-6.260;2022-12-18T13:07:56;8.89;86.68
71942;DHT22;59997;53.300;-6.260;2022-12-18T13:13:02;8.87;86.78
71942;DHT22;59997;53.300;-6.260;2022-12-18T13:16:06;9.01;86.79
71942;DHT22;59997;53.300;-6.260;2022-12-18T13:18:32;9.07;86.52
71942;DHT22;59997;53.300;-6.260;2022-12-18T13:31:57;9.24;86.34
71942;DHT22;59997;53.300;-6.260;2022-12-18T13:34:30;9.28;86.31
71942;DHT22;59997;53.300;-6.260;2022-12-18T13:39:56;9.46;85.83
71942;DHT22;59997;53.300;-6.260;2022-12-18T13:42:36;9.50;85.97
71942;DHT22;59997;53.300;-6.260;2022-12-18T13:48:22;9.49;86.27
71942;DHT22;59997;53.300;-6.260;2022-12-18T13:50:52;9.46;86.22
71942;DHT22;59997;53.300;-6.260;2022-12-18T13:53:39;9.50;85.89
71942;DHT22;59997;53.300;-6.260;2022-12-18T13:56:07;9.49;86.10
71942;DHT22;59997;53.300;-6.260;2022-12-18T13:58:33;9.63;85.88
71942;DHT22;59997;53.300;-6.260;2022-12-18T14:00:58;9.62;85.87
71942;DHT22;59997;53.300;-6.260;2022-12-18T14:03:27;9.67;85.76
71942;DHT22;59997;53.300;-6.260;2022-12-18T14:06:02;9.65;85.83
71942;DHT22;59997;53.300;-6.260;2022-12-18T14:08:34;9.69;85.86
71942;DHT22;59997;53.300;-6.260;2022-12-18T14:11:01;9.72;85.77
71942;DHT22;59997;53.300;-6.260;2022-12-18T14:13:31;9.74;85.79
71942;DHT22;59997;53.300;-6.260;2022-12-18T14:15:57;9.79;85.81
71942;DHT22;59997;53.300;-6.260;2022-12-18T14:21:05;9.72;86.09
71942;DHT22;59997;53.300;-6.260;2022-12-18T14:23:34;9.74;86.24
71942;DHT22;59997;53.300;-6.260;2022-12-18T14:26:02;9.77;86.18
71942;DHT22;59997;53.300;-6.260;2022-12-18T14:28:28;9.76;86.39
71942;DHT22;59997;53.300;-6.260;2022-12-18T14:30:54;9.82;86.35
71942;DHT22;59997;53.300;-6.260;2022-12-18T14:33:27;9.79;86.50
71942;DHT22;59997;53.300;-6.260;2022-12-18T14:35:54;9.77;86.59
71942;DHT22;59997;53.300;-6.260;2022-12-18T14:38:24;9.77;86.68
71942;DHT22;59997;53.300;-6.260;2022-12-18T14:40:57;9.72;86.84
71942;DHT22;59997;53.300;-6.260;2022-12-18T14:43:25;9.74;86.85
71942;DHT22;59997;53.300;-6.260;2022-12-18T14:45:51;9.79;86.95
71942;DHT22;59997;53.300;-6.260;2022-12-18T14:48:30;9.74;87.13
71942;DHT22;59997;53.300;-6.260;2022-12-18T14:51:14;9.86;87.03
71942;DHT22;59997;53.300;-6.260;2022-12-18T14:53:43;9.84;87.13
71942;DHT22;59997;53.300;-6.260;2022-12-18T14:58:47;9.94;87.25
71942;DHT22;59997;53.300;-6.260;2022-12-18T15:01:24;9.94;87.27
71942;DHT22;59997;53.300;-6.260;2022-12-18T15:03:52;9.95;87.29
71942;DHT22;59997;53.300;-6.260;2022-12-18T15:06:26;10.04;87.43
71942;DHT22;59997;53.300;-6.260;2022-12-18T15:08:53;10.07;87.43
71942;DHT22;59997;53.300;-6.260;2022-12-18T15:11:45;10.09;87.50
71942;DHT22;59997;53.300;-6.260;2022-12-18T15:16:55;10.17;87.46
71942;DHT22;59997;53.300;-6.260;2022-12-18T15:19:22;10.15;87.40
71942;DHT22;59997;53.300;-6.260;2022-12-18T15:21:53;10.35;87.35
71942;DHT22;59997;53.300;-6.260;2022-12-18T15:24:24;10.32;87.42
71942;DHT22;59997;53.300;-6.260;2022-12-18T15:26:52;10.45;87.54
71942;DHT22;59997;53.300;-6.260;2022-12-18T15:29:20;10.52;87.28
71942;DHT22;59997;53.300;-6.260;2022-12-18T15:31:58;10.35;87.35
71942;DHT22;59997;53.300;-6.260;2022-12-18T15:34:24;10.42;87.01
71942;DHT22;59997;53.300;-6.260;2022-12-18T15:36:51;10.26;87.07
71942;DHT22;59997;53.300;-6.260;2022-12-18T15:39:17;10.11;87.60
71942;DHT22;59997;53.300;-6.260;2022-12-18T15:41:42;9.84;88.02
71942;DHT22;59997;53.300;-6.260;2022-12-18T15:44:28;9.73;88.24
71942;DHT22;59997;53.300;-6.260;2022-12-18T15:46:54;9.73;88.77
71942;DHT22;59997;53.300;-6.260;2022-12-18T15:49:19;9.76;89.04
71942;DHT22;59997;53.300;-6.260;2022-12-18T15:51:48;9.65;89.23
71942;DHT22;59997;53.300;-6.260;2022-12-18T15:54:16;9.59;89.41
71942;DHT22;59997;53.300;-6.260;2022-12-18T15:56:42;9.70;89.61
71942;DHT22;59997;53.300;-6.260;2022-12-18T15:59:26;9.84;89.40
71942;DHT22;59997;53.300;-6.260;2022-12-18T16:01:52;9.57;89.29
71942;DHT22;59997;53.300;-6.260;2022-12-18T16:04:22;9.76;89.60
71942;DHT22;59997;53.300;-6.260;2022-12-18T16:06:49;9.76;89.83
71942;DHT22;59997;53.300;-6.260;2022-12-18T16:09:14;9.74;89.72
71942;DHT22;59997;53.300;-6.260;2022-12-18T16:11:42;9.77;89.89
71942;DHT22;59997;53.300;-6.260;2022-12-18T16:14:21;9.73;90.05
71942;DHT22;59997;53.300;-6.260;2022-12-18T16:16:49;9.73;89.91
71942;DHT22;59997;53.300;-6.260;2022-12-18T16:19:15;9.73;90.01
71942;DHT22;59997;53.300;-6.260;2022-12-18T16:21:41;9.79;90.15
71942;DHT22;59997;53.300;-6.260;2022-12-18T16:24:21;9.62;90.00
71942;DHT22;59997;53.300;-6.260;2022-12-18T16:26:47;9.72;90.23
71942;DHT22;59997;53.300;-6.260;2022-12-18T16:29:13;10.02;90.38
71942;DHT22;59997;53.300;-6.260;2022-12-18T16:31:39;10.17;90.33
71942;DHT22;59997;53.300;-6.260;2022-12-18T16:36:43;10.34;89.86
71942;DHT22;59997;53.300;-6.260;2022-12-18T16:39:09;10.35;89.87
71942;DHT22;59997;53.300;-6.260;2022-12-18T16:41:34;10.42;89.77
71942;DHT22;59997;53.300;-6.260;2022-12-18T16:44:00;10.34;89.65
71942;DHT22;59997;53.300;-6.260;2022-12-18T16:46:26;10.46;89.87
71942;DHT22;59997;53.300;-6.260;2022-12-18T16:48:51;10.50;89.78
71942;DHT22;59997;53.300;-6.260;2022-12-18T16:51:17;10.63;89.62
71942;DHT22;59997;53.300;-6.260;2022-12-18T16:53:42;10.71;89.36
71942;DHT22;59997;53.300;-6.260;2022-12-18T16:56:08;10.76;89.41
71942;DHT22;59997;53.300;-6.260;2022-12-18T16:58:33;10.90;89.28
71942;DHT22;59997;53.300;-6.260;2022-12-18T17:00:59;11.08;89.17
71942;DHT22;59997;53.300;-6.260;2022-12-18T17:03:25;11.10;88.93
71942;DHT22;59997;53.300;-6.260;2022-12-18T17:05:50;11.08;88.93
71942;DHT22;59997;53.300;-6.260;2022-12-18T17:08:16;11.04;88.72
71942;DHT22;59997;53.300;-6.260;2022-12-18T17:10:41;11.07;88.81
71942;DHT22;59997;53.300;-6.260;2022-12-18T17:13:07;11.10;88.77
71942;DHT22;59997;53.300;-6.260;2022-12-18T17:15:35;11.08;88.66
71942;DHT22;59997;53.300;-6.260;2022-12-18T17:18:01;10.97;88.74
71942;DHT22;59997;53.300;-6.260;2022-12-18T17:20:29;10.90;88.86
71942;DHT22;59997;53.300;-6.260;2022-12-18T17:22:54;10.94;88.98
71942;DHT22;59997;53.300;-6.260;2022-12-18T17:25:20;11.04;88.94
71942;DHT22;59997;53.300;-6.260;2022-12-18T17:27:45;11.14;88.70
71942;DHT22;59997;53.300;-6.260;2022-12-18T17:30:11;11.12;88.45